createdAt,value
2023-10-05T00:02:17.716Z,12.75
2023-10-05T00:04:46.420Z,11.45
2023-10-05T00:07:21.103Z,10.13
2023-10-05T00:09:48.214Z,13.50
2023-10-05T00:12:32.997Z,9.75
2023-10-05T00:15:14.690Z,10.15
2023-10-05T00:17:42.326Z,9.82
2023-10-05T00:20:20.102Z,9.65
2023-10-05T00:22:50.798Z,16.45
2023-10-05T00:25:18.792Z,10.85
2023-10-05T00:27:47.129Z,8.15
2023-10-05T00:30:17.799Z,10.75
2023-10-05T00:32:49.749Z,11.07
2023-10-05T00:35:25.987Z,9.75
2023-10-05T00:37:53.986Z,10.30
2023-10-05T00:40:43.629Z,8.95
2023-10-05T00:43:22.344Z,10.55
2023-10-05T00:45:49.274Z,13.95
2023-10-05T00:48:36.926Z,9.32
2023-10-05T00:51:15.481Z,10.98
2023-10-05T00:53:42.999Z,12.60
2023-10-05T00:56:13.208Z,9.10
2023-10-05T00:58:45.280Z,10.23
2023-10-05T01:01:28.313Z,9.27
2023-10-05T01:04:04.755Z,12.52
2023-10-05T01:06:42.660Z,9.82
2023-10-05T01:09:30.699Z,10.80
2023-10-05T01:12:03.811Z,11.05
2023-10-05T01:15:06.978Z,9.13
2023-10-05T01:17:36.306Z,7.57
2023-10-05T01:20:34.551Z,8.10
2023-10-05T01:23:02.524Z,9.38
2023-10-05T01:25:29.590Z,10.07
2023-10-05T01:27:56.762Z,8.30
2023-10-05T01:30:23.919Z,8.45
2023-10-05T01:32:51.027Z,9.40
2023-10-05T01:35:19.015Z,7.55
2023-10-05T01:37:47.178Z,9.30
2023-10-05T01:40:22.017Z,7.35
2023-10-05T01:42:49.355Z,11.10
2023-10-05T01:45:17.734Z,6.97
2023-10-05T01:47:45.345Z,9.43
2023-10-05T01:50:27.374Z,9.85
2023-10-05T01:53:07.044Z,9.15
2023-10-05T01:55:40.369Z,10.23
2023-10-05T01:58:08.877Z,11.40
2023-10-05T02:00:39.475Z,9.25
2023-10-05T02:03:11.026Z,8.57
2023-10-05T02:05:38.241Z,8.82
2023-10-05T02:08:05.852Z,12.07
2023-10-05T02:10:41.155Z,8.00
2023-10-05T02:13:13.248Z,8.88
2023-10-05T02:15:41.576Z,10.00
2023-10-05T02:18:19.460Z,11.00
2023-10-05T02:20:49.028Z,9.77
2023-10-05T02:23:38.156Z,7.68
2023-10-05T02:26:25.042Z,8.15
2023-10-05T02:28:52.709Z,10.40
2023-10-05T02:31:21.464Z,7.72
2023-10-05T02:33:48.995Z,7.40
2023-10-05T02:36:22.277Z,8.02
2023-10-05T02:38:50.557Z,9.38
2023-10-05T02:41:39.025Z,8.00
2023-10-05T02:44:17.841Z,10.68
2023-10-05T02:46:48.822Z,8.25
2023-10-05T02:49:17.042Z,9.55
2023-10-05T02:51:44.459Z,11.90
2023-10-05T02:54:11.903Z,8.50
2023-10-05T02:56:41.375Z,10.75
2023-10-05T02:59:09.101Z,8.23
2023-10-05T03:01:38.866Z,7.82
2023-10-05T03:04:16.393Z,8.18
2023-10-05T03:06:46.287Z,8.20
2023-10-05T03:09:13.122Z,11.77
2023-10-05T03:11:42.567Z,11.70
2023-10-05T03:14:13.171Z,8.70
2023-10-05T03:16:49.927Z,7.68
2023-10-05T03:19:24.509Z,7.03
2023-10-05T03:21:53.851Z,8.98
2023-10-05T03:24:25.750Z,9.05
2023-10-05T03:26:53.374Z,8.52
2023-10-05T03:29:23.009Z,9.02
2023-10-05T03:32:05.756Z,11.77
2023-10-05T03:34:33.698Z,6.43
2023-10-05T03:37:09.841Z,8.82
2023-10-05T03:39:41.036Z,7.65
2023-10-05T03:42:08.000Z,10.25
2023-10-05T03:44:35.166Z,8.82
2023-10-05T03:47:02.084Z,8.57
2023-10-05T03:49:29.435Z,11.20
2023-10-05T03:51:57.210Z,7.38
2023-10-05T03:54:27.487Z,9.52
2023-10-05T03:57:11.883Z,9.07
2023-10-05T03:59:39.102Z,9.25
2023-10-05T04:02:06.646Z,8.05
2023-10-05T04:04:36.575Z,9.02
2023-10-05T04:07:04.808Z,7.43
2023-10-05T04:09:34.387Z,9.07
2023-10-05T04:12:02.351Z,8.60
2023-10-05T04:14:29.886Z,14.82
2023-10-05T04:17:00.624Z,8.45
2023-10-05T04:19:27.407Z,8.20
2023-10-05T04:21:57.331Z,8.73
2023-10-05T04:24:24.101Z,7.43
2023-10-05T04:26:52.625Z,7.40
2023-10-05T04:29:22.324Z,7.82
2023-10-05T04:31:49.945Z,8.95
2023-10-05T04:34:20.247Z,7.10
2023-10-05T04:36:49.660Z,6.95
2023-10-05T04:39:22.933Z,8.63
2023-10-05T04:41:52.519Z,6.50
2023-10-05T04:44:19.274Z,10.32
2023-10-05T04:46:49.704Z,7.53
2023-10-05T04:49:17.594Z,8.73
2023-10-05T04:51:45.235Z,8.68
2023-10-05T04:54:13.409Z,7.75
2023-10-05T04:56:41.793Z,9.30
2023-10-05T04:59:09.125Z,10.95
2023-10-05T05:01:59.109Z,8.90
2023-10-05T05:04:42.006Z,9.70
2023-10-05T05:07:10.487Z,9.07
2023-10-05T05:09:40.314Z,8.43
2023-10-05T05:12:17.308Z,8.50
2023-10-05T05:14:46.183Z,9.00
2023-10-05T05:17:15.018Z,9.50
2023-10-05T05:19:42.051Z,10.20
2023-10-05T05:22:09.976Z,10.30
2023-10-05T05:24:37.530Z,11.40
2023-10-05T05:27:12.253Z,10.50
2023-10-05T05:29:39.308Z,8.27
2023-10-05T05:32:12.229Z,14.50
2023-10-05T05:34:39.607Z,11.00
2023-10-05T05:37:06.624Z,10.23
2023-10-05T05:39:40.693Z,10.77
2023-10-05T05:42:14.390Z,7.75
2023-10-05T05:44:42.324Z,12.10
2023-10-05T05:47:16.157Z,9.90
2023-10-05T05:49:46.276Z,8.95
2023-10-05T05:52:16.891Z,11.10
2023-10-05T05:54:48.054Z,11.07
2023-10-05T05:57:21.665Z,11.30
2023-10-05T05:59:48.612Z,10.43
2023-10-05T06:02:15.791Z,12.13
2023-10-05T06:04:42.943Z,9.63
2023-10-05T06:07:14.292Z,14.05
2023-10-05T06:09:50.506Z,12.77
2023-10-05T06:14:44.240Z,10.13
2023-10-05T06:17:11.869Z,10.23
2023-10-05T06:19:39.177Z,10.38
2023-10-05T06:22:08.003Z,14.55
2023-10-05T06:24:36.499Z,8.65
2023-10-05T06:27:04.060Z,8.45
2023-10-05T06:29:30.794Z,9.23
2023-10-05T06:31:57.808Z,8.68
2023-10-05T06:34:24.643Z,8.77
2023-10-05T06:36:53.260Z,11.40
2023-10-05T06:39:27.462Z,10.23
2023-10-05T06:41:55.006Z,10.73
2023-10-05T06:44:21.776Z,7.47
2023-10-05T06:46:49.613Z,7.32
2023-10-05T06:49:17.506Z,8.80
2023-10-05T06:51:46.723Z,10.40
2023-10-05T06:54:15.755Z,10.68
2023-10-05T06:56:49.022Z,10.45
2023-10-05T06:59:15.872Z,13.93
2023-10-05T07:01:42.851Z,7.95
2023-10-05T07:04:10.941Z,11.82
2023-10-05T07:06:38.144Z,10.27
2023-10-05T07:09:06.022Z,9.02
2023-10-05T07:11:33.152Z,9.57
2023-10-05T07:14:01.110Z,9.77
2023-10-05T07:16:30.248Z,11.90
2023-10-05T07:18:57.146Z,9.65
2023-10-05T07:21:25.058Z,7.95
2023-10-05T07:23:51.951Z,7.22
2023-10-05T07:26:19.270Z,11.43
2023-10-05T07:28:47.254Z,11.68
2023-10-05T07:31:14.375Z,6.20
2023-10-05T07:33:42.572Z,11.95
2023-10-05T07:36:09.963Z,9.65
2023-10-05T07:38:40.021Z,10.20
2023-10-05T07:41:06.988Z,12.70
2023-10-05T07:43:35.286Z,11.30
2023-10-05T07:46:02.471Z,9.18
2023-10-05T07:48:29.517Z,8.75
2023-10-05T07:50:56.713Z,7.22
2023-10-05T07:53:23.694Z,7.95
2023-10-05T07:55:51.080Z,11.88
2023-10-05T07:58:18.406Z,14.10
2023-10-05T08:00:46.939Z,10.13
2023-10-05T08:03:14.345Z,12.38
2023-10-05T08:05:42.838Z,8.25
2023-10-05T08:08:11.594Z,8.82
2023-10-05T08:10:40.010Z,9.30
2023-10-05T08:13:06.909Z,7.68
2023-10-05T08:15:35.710Z,10.20
2023-10-05T08:18:03.012Z,9.45
2023-10-05T08:20:30.668Z,8.43
2023-10-05T08:22:58.169Z,7.40
2023-10-05T08:25:26.352Z,10.45
2023-10-05T08:27:53.652Z,10.02
2023-10-05T08:30:20.943Z,9.93
2023-10-05T08:32:49.993Z,8.25
2023-10-05T08:37:51.055Z,10.45
2023-10-05T08:40:34.792Z,10.77
2023-10-05T08:43:12.440Z,11.60
2023-10-05T08:45:54.277Z,7.50
2023-10-05T08:48:37.807Z,9.85
2023-10-05T08:51:11.361Z,8.50
2023-10-05T08:53:42.380Z,7.53
2023-10-05T08:56:14.444Z,9.85
2023-10-05T08:58:48.486Z,7.55
2023-10-05T09:01:31.029Z,8.45
2023-10-05T09:04:10.219Z,11.15
2023-10-05T09:06:48.604Z,8.07
2023-10-05T09:09:54.229Z,7.38
2023-10-05T09:12:43.346Z,10.18
2023-10-05T09:15:16.388Z,15.38
2023-10-05T09:17:58.745Z,9.55
2023-10-05T09:20:34.096Z,10.25
2023-10-05T09:23:05.161Z,10.95
2023-10-05T09:25:39.994Z,7.10
2023-10-05T09:28:10.963Z,10.02
2023-10-05T09:33:48.290Z,9.85
2023-10-05T09:36:24.232Z,8.13
2023-10-05T09:38:53.017Z,10.70
2023-10-05T09:41:27.887Z,11.20
2023-10-05T09:44:06.765Z,7.82
2023-10-05T09:46:35.936Z,7.82
2023-10-05T09:49:04.559Z,11.02
2023-10-05T09:51:35.410Z,11.18
2023-10-05T09:54:06.078Z,7.05
2023-10-05T09:56:43.656Z,8.50
2023-10-05T09:59:17.302Z,8.55
2023-10-05T10:01:46.716Z,10.80
2023-10-05T10:04:25.704Z,8.98
2023-10-05T10:06:54.479Z,9.02
2023-10-05T10:09:28.112Z,8.55
2023-10-05T10:11:59.912Z,8.77
2023-10-05T10:14:27.669Z,8.52
2023-10-05T10:17:03.529Z,9.43
2023-10-05T10:19:44.423Z,6.15
2023-10-05T10:22:13.503Z,13.55
2023-10-05T10:24:41.320Z,12.10
2023-10-05T10:27:12.736Z,10.85
2023-10-05T10:29:52.409Z,8.80
2023-10-05T10:32:20.687Z,8.57
2023-10-05T10:34:51.909Z,8.65
2023-10-05T10:37:36.011Z,9.30
2023-10-05T10:40:12.546Z,6.90
2023-10-05T10:43:14.188Z,8.60
2023-10-05T10:45:47.906Z,7.13
2023-10-05T10:48:30.227Z,8.13
2023-10-05T10:51:00.862Z,13.05
2023-10-05T10:53:32.659Z,10.20
2023-10-05T10:56:18.619Z,9.75
2023-10-05T10:58:45.636Z,8.60
2023-10-05T11:01:30.457Z,7.78
2023-10-05T11:04:01.837Z,10.63
2023-10-05T11:06:29.207Z,8.68
2023-10-05T11:09:00.926Z,8.68
2023-10-05T11:11:28.420Z,7.32
2023-10-05T11:13:58.081Z,6.13
2023-10-05T11:16:36.189Z,12.73
2023-10-05T11:19:12.349Z,6.85
2023-10-05T11:21:49.422Z,7.18
2023-10-05T11:24:19.720Z,6.70
2023-10-05T11:26:57.028Z,6.72
2023-10-05T11:29:31.168Z,10.38
2023-10-05T11:32:21.083Z,8.13
2023-10-05T11:35:14.895Z,6.32
2023-10-05T11:37:46.596Z,7.55
2023-10-05T11:40:24.962Z,9.02
2023-10-05T11:42:52.114Z,9.73
2023-10-05T11:45:19.816Z,6.35
2023-10-05T11:47:54.098Z,6.78
2023-10-05T11:50:34.165Z,5.70
2023-10-05T11:53:08.953Z,8.82
2023-10-05T11:55:36.841Z,9.15
2023-10-05T11:58:04.357Z,8.70
2023-10-05T12:00:35.250Z,12.85
2023-10-05T12:03:03.532Z,8.25
2023-10-05T12:05:31.855Z,10.27
2023-10-05T12:08:01.248Z,10.20
2023-10-05T12:10:28.192Z,7.78
2023-10-05T12:12:55.610Z,12.25
2023-10-05T12:15:24.070Z,8.02
2023-10-05T12:17:51.313Z,7.88
2023-10-05T12:20:19.471Z,8.43
2023-10-05T12:22:46.893Z,10.10
2023-10-05T12:25:25.583Z,9.15
2023-10-05T12:27:52.776Z,10.50
2023-10-05T12:30:19.779Z,7.53
2023-10-05T12:32:46.950Z,9.75
2023-10-05T12:35:16.259Z,12.15
2023-10-05T12:37:45.870Z,9.60
2023-10-05T12:40:20.044Z,7.93
2023-10-05T12:45:24.699Z,12.85
2023-10-05T12:47:59.035Z,8.32
2023-10-05T12:50:28.632Z,8.48
2023-10-05T12:52:57.316Z,7.15
2023-10-05T12:55:27.433Z,9.23
2023-10-05T12:57:54.816Z,6.05
2023-10-05T13:00:30.184Z,4.95
2023-10-05T13:03:01.493Z,3.95
2023-10-05T13:05:44.539Z,3.92
2023-10-05T13:08:11.863Z,4.40
2023-10-05T13:10:39.546Z,3.45
2023-10-05T13:13:27.235Z,4.30
2023-10-05T13:15:54.778Z,4.40
2023-10-05T13:18:22.757Z,4.07
2023-10-05T13:20:51.468Z,4.47
2023-10-05T13:23:25.864Z,3.90
2023-10-05T13:25:53.909Z,2.58
2023-10-05T13:28:24.973Z,3.40
2023-10-05T13:30:52.255Z,4.32
2023-10-05T13:33:24.982Z,3.40
2023-10-05T13:35:52.757Z,3.38
2023-10-05T13:38:25.734Z,3.40
2023-10-05T13:41:01.740Z,4.68
2023-10-05T13:43:30.568Z,4.53
2023-10-05T13:46:11.478Z,4.68
2023-10-05T13:48:41.397Z,3.20
2023-10-05T13:51:14.503Z,3.03
2023-10-05T13:54:10.636Z,4.70
2023-10-05T13:57:20.262Z,3.53
2023-10-05T13:59:55.889Z,5.30
2023-10-05T14:02:22.851Z,3.72
2023-10-05T14:04:49.844Z,3.03
2023-10-05T14:07:16.667Z,4.95
2023-10-05T14:09:45.157Z,4.10
2023-10-05T14:12:13.420Z,2.63
2023-10-05T14:14:43.040Z,3.08
2023-10-05T14:17:10.051Z,2.78
2023-10-05T14:19:37.379Z,5.75
2023-10-05T14:22:10.189Z,4.75
2023-10-05T14:24:37.512Z,2.88
2023-10-05T14:27:06.435Z,4.35
2023-10-05T14:29:37.258Z,4.97
2023-10-05T14:32:07.566Z,3.40
2023-10-05T14:34:35.469Z,6.82
2023-10-05T14:37:06.890Z,2.53
2023-10-05T14:39:38.469Z,5.63
2023-10-05T14:42:05.851Z,3.90
2023-10-05T14:44:36.802Z,5.18
2023-10-05T14:47:13.711Z,2.60
2023-10-05T14:49:41.741Z,4.78
2023-10-05T14:52:09.135Z,4.28
2023-10-05T14:54:37.328Z,4.75
2023-10-05T14:57:04.524Z,4.88
2023-10-05T14:59:31.781Z,3.67
2023-10-05T15:01:59.553Z,4.00
2023-10-05T15:04:26.866Z,5.03
2023-10-05T15:06:53.702Z,5.25
2023-10-05T15:09:22.098Z,4.40
2023-10-05T15:11:49.677Z,5.55
2023-10-05T15:14:17.755Z,4.20
2023-10-05T15:16:45.374Z,5.28
2023-10-05T15:19:12.702Z,6.10
2023-10-05T15:21:39.580Z,3.45
2023-10-05T15:24:12.066Z,4.00
2023-10-05T15:26:41.591Z,3.97
2023-10-05T15:29:10.760Z,6.07
2023-10-05T15:31:38.165Z,7.55
2023-10-05T15:34:05.410Z,3.45
2023-10-05T15:36:32.735Z,3.25
2023-10-05T15:39:00.680Z,4.72
2023-10-05T15:41:28.492Z,4.30
2023-10-05T15:43:56.241Z,3.28
2023-10-05T15:46:23.489Z,4.05
2023-10-05T15:48:50.719Z,5.63
2023-10-05T15:51:17.487Z,3.10
2023-10-05T15:53:52.951Z,6.75
2023-10-05T15:56:20.623Z,4.20
2023-10-05T15:58:47.830Z,5.45
2023-10-05T16:01:14.856Z,4.60
2023-10-05T16:03:42.170Z,6.32
2023-10-05T16:06:09.755Z,6.53
2023-10-05T16:08:37.787Z,4.90
2023-10-05T16:11:06.458Z,6.60
2023-10-05T16:13:33.507Z,7.57
2023-10-05T16:16:00.358Z,8.70
2023-10-05T16:19:39.609Z,4.97
2023-10-05T16:22:06.902Z,5.35
2023-10-05T16:24:33.731Z,9.35
2023-10-05T16:27:01.036Z,6.68
2023-10-05T16:29:27.894Z,5.95
2023-10-05T16:31:54.930Z,6.05
2023-10-05T16:34:21.846Z,7.72
2023-10-05T16:36:49.007Z,5.03
2023-10-05T16:39:20.081Z,5.85
2023-10-05T16:41:48.053Z,6.63
2023-10-05T16:44:15.106Z,4.53
2023-10-05T16:46:43.459Z,11.38
2023-10-05T16:49:10.664Z,5.32
2023-10-05T16:51:37.765Z,7.65
2023-10-05T16:54:04.633Z,7.20
2023-10-05T16:56:47.741Z,6.15
2023-10-05T16:59:19.466Z,4.38
2023-10-05T17:01:46.423Z,6.75
2023-10-05T17:04:14.286Z,6.78
2023-10-05T17:06:41.223Z,7.00
2023-10-05T17:09:11.454Z,8.05
2023-10-05T17:11:38.717Z,6.97
2023-10-05T17:14:05.728Z,6.15
2023-10-05T17:16:32.938Z,6.28
2023-10-05T17:18:59.694Z,6.25
2023-10-05T17:21:27.138Z,8.25
2023-10-05T17:23:55.063Z,6.03
2023-10-05T17:26:22.104Z,6.03
2023-10-05T17:28:50.781Z,8.05
2023-10-05T17:31:18.946Z,8.85
2023-10-05T17:33:45.682Z,8.38
2023-10-05T17:36:13.512Z,8.75
2023-10-05T17:38:40.410Z,6.63
2023-10-05T17:41:09.309Z,6.60
2023-10-05T17:43:36.038Z,7.40
2023-10-05T17:46:03.939Z,6.00
2023-10-05T17:48:30.682Z,8.63
2023-10-05T17:50:58.035Z,7.65
2023-10-05T17:53:25.546Z,6.32
2023-10-05T17:55:52.740Z,8.20
2023-10-05T17:58:20.390Z,8.82
2023-10-05T18:00:48.678Z,9.13
2023-10-05T18:03:21.949Z,5.72
2023-10-05T18:05:55.256Z,10.10
2023-10-05T18:08:22.853Z,4.85
2023-10-05T18:10:49.835Z,7.82
2023-10-05T18:13:16.814Z,6.43
2023-10-05T18:15:44.195Z,7.38
2023-10-05T18:18:11.685Z,6.95
2023-10-05T18:20:40.410Z,9.05
2023-10-05T18:23:07.188Z,8.02
2023-10-05T18:25:35.432Z,7.85
2023-10-05T18:28:06.251Z,9.25
2023-10-05T18:30:36.322Z,7.32
2023-10-05T18:33:05.473Z,7.60
2023-10-05T18:35:32.474Z,7.55
2023-10-05T18:37:59.162Z,7.65
2023-10-05T18:40:26.123Z,7.57
2023-10-05T18:42:53.920Z,9.10
2023-10-05T18:45:20.863Z,7.22
2023-10-05T18:47:47.613Z,9.52
2023-10-05T18:50:14.883Z,7.80
2023-10-05T18:52:42.611Z,8.57
2023-10-05T18:55:09.841Z,11.30
2023-10-05T18:57:37.051Z,6.72
2023-10-05T19:00:11.208Z,9.38
2023-10-05T19:02:38.796Z,7.78
2023-10-05T19:05:11.232Z,11.32
2023-10-05T19:07:39.276Z,6.75
2023-10-05T19:10:07.562Z,6.32
2023-10-05T19:12:35.405Z,8.88
2023-10-05T19:15:04.409Z,12.25
2023-10-05T19:17:31.380Z,10.90
2023-10-05T19:19:58.500Z,7.43
2023-10-05T19:22:25.312Z,8.73
2023-10-05T19:24:52.840Z,8.68
2023-10-05T19:27:20.463Z,8.82
2023-10-05T19:29:47.957Z,12.50
2023-10-05T19:32:14.715Z,11.23
2023-10-05T19:34:41.728Z,7.93
2023-10-05T19:37:08.432Z,9.43
2023-10-05T19:39:35.494Z,11.90
2023-10-05T19:42:02.140Z,11.63
2023-10-05T19:44:29.082Z,11.40
2023-10-05T19:46:55.751Z,10.23
2023-10-05T19:49:26.321Z,11.05
2023-10-05T19:51:54.256Z,9.75
2023-10-05T19:54:23.316Z,10.15
2023-10-05T19:56:51.921Z,11.75
2023-10-05T19:59:22.337Z,10.82
2023-10-05T20:04:17.917Z,13.57
2023-10-05T20:06:44.837Z,12.70
2023-10-05T20:09:15.046Z,19.05
2023-10-05T20:11:42.615Z,15.02
2023-10-05T20:14:12.705Z,12.27
2023-10-05T20:16:40.623Z,14.73
2023-10-05T20:19:08.499Z,12.85
2023-10-05T20:21:35.192Z,11.07
2023-10-05T20:24:02.445Z,13.43
2023-10-05T20:26:29.924Z,11.32
2023-10-05T20:28:56.930Z,14.93
2023-10-05T20:31:23.688Z,14.05
2023-10-05T20:33:50.724Z,15.25
2023-10-05T20:36:17.925Z,15.32
2023-10-05T20:38:44.969Z,12.55
2023-10-05T20:41:11.721Z,18.25
2023-10-05T20:43:39.055Z,19.02
2023-10-05T20:46:07.498Z,11.50
2023-10-05T20:48:35.163Z,15.85
2023-10-05T20:51:02.269Z,12.80
2023-10-05T20:53:29.366Z,15.80
2023-10-05T20:55:56.360Z,17.58
2023-10-05T20:58:23.468Z,16.25
2023-10-05T21:00:53.712Z,16.75
2023-10-05T21:03:20.911Z,17.33
2023-10-05T21:05:47.877Z,18.98
2023-10-05T21:08:15.342Z,17.00
2023-10-05T21:10:46.610Z,19.95
2023-10-05T21:13:13.607Z,20.90
2023-10-05T21:15:40.282Z,17.80
2023-10-05T21:18:07.239Z,25.85
2023-10-05T21:20:34.163Z,23.98
2023-10-05T21:23:02.337Z,25.35
2023-10-05T21:25:29.437Z,27.52
2023-10-05T21:27:56.428Z,24.23
2023-10-05T21:30:23.392Z,28.67
2023-10-05T21:32:50.497Z,30.38
2023-10-05T21:35:17.509Z,25.83
2023-10-05T21:37:44.550Z,28.08
2023-10-05T21:40:11.622Z,23.10
2023-10-05T21:42:38.561Z,20.88
2023-10-05T21:45:13.667Z,26.15
2023-10-05T21:47:44.838Z,27.38
2023-10-05T21:50:12.670Z,23.85
2023-10-05T21:52:40.203Z,23.33
2023-10-05T21:55:07.208Z,25.52
2023-10-05T21:57:34.180Z,29.33
2023-10-05T22:00:01.365Z,26.00
2023-10-05T22:02:28.540Z,24.08
2023-10-05T22:04:58.064Z,21.23
2023-10-05T22:07:26.786Z,23.75
2023-10-05T22:09:53.607Z,24.88
2023-10-05T22:12:20.631Z,27.17
2023-10-05T22:14:47.375Z,21.65
2023-10-05T22:17:14.343Z,20.50
2023-10-05T22:19:44.256Z,20.27
2023-10-05T22:22:11.647Z,24.88
2023-10-05T22:24:40.443Z,21.52
2023-10-05T22:27:08.301Z,20.13
2023-10-05T22:29:35.664Z,21.08
2023-10-05T22:32:04.782Z,21.30
2023-10-05T22:34:31.865Z,19.35
2023-10-05T22:36:59.803Z,20.05
2023-10-05T22:39:28.853Z,21.40
2023-10-05T22:41:56.610Z,21.75
2023-10-05T22:44:23.363Z,21.42
2023-10-05T22:46:53.136Z,20.70
2023-10-05T22:49:21.419Z,18.75
2023-10-05T22:51:48.727Z,19.92
2023-10-05T22:54:15.732Z,20.55
2023-10-05T22:56:44.982Z,22.90
2023-10-05T22:59:12.025Z,18.77
2023-10-05T23:01:42.441Z,20.33
2023-10-05T23:04:12.712Z,21.02
2023-10-05T23:06:39.685Z,19.65
2023-10-05T23:09:10.803Z,20.20
2023-10-05T23:11:41.603Z,19.17
2023-10-05T23:14:10.540Z,19.77
2023-10-05T23:16:37.770Z,26.45
2023-10-05T23:19:11.106Z,22.15
2023-10-05T23:21:44.217Z,22.98
2023-10-05T23:24:12.589Z,20.45
2023-10-05T23:26:41.201Z,21.50
2023-10-05T23:29:10.056Z,20.30
2023-10-05T23:31:38.684Z,22.13
2023-10-05T23:34:13.749Z,24.42
2023-10-05T23:36:41.104Z,21.35
2023-10-05T23:39:10.068Z,24.10
2023-10-05T23:41:39.806Z,24.70
2023-10-05T23:44:11.052Z,24.70
2023-10-05T23:46:41.857Z,25.83
2023-10-05T23:49:18.264Z,26.55
2023-10-05T23:51:46.107Z,22.30
2023-10-05T23:54:14.021Z,21.85
2023-10-05T23:56:42.480Z,22.15
2023-10-05T23:59:12.868Z,21.45
